Bethel, ME (04217)

10:51 AM EDT on August 18, 2017 (GMT -0400)
Church Street | | Change Station

Elev 731 ft 44.40 °N, 70.79 °W | Updated 14 minutes ago

Rain
Rain
56.7 °F
Feels Like 56.7 °F
N
0.6
Wind Variable Wind from SSE
Gusts 1.9 mph

Today
High -- | Low -- °F
--% Chance of Precip.
Yesterday
High -- | Low -- °F
Precip. -- in
Pressure 29.97 in
Visibility 8.0 miles
Clouds Few 4300 ft
Few 8000 ft
Overcast 10000 ft
Dew Point 56 °F
Humidity 96%
Rainfall 0.13 in
Snow Depth Not available.
5:49 AM 7:43 PM
Waning Crescent, 13% visible
METAR KBML 181352Z AUTO 17003KT 8SM -RA FEW043 FEW080 OVC100 15/12 A2996 RMK AO2 SLP148 P0012 T01500122
Pressure 29.97 in
Visibility 8.0 miles
Clouds Few 4300 ft
Few 8000 ft
Overcast 10000 ft
Dew Point 56 °F
Humidity 96%
Rainfall 0.13 in
Snow Depth Not available.
5:49 AM 7:43 PM
Waning Crescent, 13% visible
METAR KBML 181352Z AUTO 17003KT 8SM -RA FEW043 FEW080 OVC100 15/12 A2996 RMK AO2 SLP148 P0012 T01500122

Get Severe Weather Alerts

Thanks for signing up!

Be on the lookout for a verification email in your inbox.

You'll start receiving the daily forecast at 6 AM.

×

10-Day Weather Forecast

Almanac

Astronomy

Aug. 18, 2017 Rise Set
Actual Time
Civil Twilight
Nautical Twilight
Astronomical Twilight
Moon
Length of Visible Light
Length of Day
Tomorrow will be .
, % of the Moon is Illuminated

Today's Extremes

State Highs State Lows

Community

WunderPhotos

Category 6

Welcome to Category 6. This is the collective home for Weather Underground's featured writeups by Dr. Jeff Masters (right), Bob Henson (left), Chris Burt, and other regular contributors.

Nearby

Air Quality

  Air Quality AQ Index Pollutant
Not available.

Snow Depth

Station Depth Elevation

Earthquake Activity

City Distance Mag. Time & Date
Minimum magnitude displayed is 2.5.

Coastal Water Temperatures

Place Temperature

Stations

Nearby Weather Stations

Station Location Temp. Windchill Dew Point Humidity Wind Precip. Elev Updated Type
                   

Watches & Warnings

There are currently no watches in effect.